createdAt,value
2019-02-25T00:00:54.204Z,0.00
2019-02-25T00:01:54.163Z,0.00
2019-02-25T00:03:25.250Z,0.00
2019-02-25T00:04:24.848Z,0.00
2019-02-25T00:05:55.558Z,0.00
2019-02-25T00:06:55.516Z,0.00
2019-02-25T00:08:26.190Z,0.00
2019-02-25T00:09:26.158Z,0.00
2019-02-25T00:10:57.252Z,0.00
2019-02-25T00:11:56.884Z,0.00
2019-02-25T00:13:27.512Z,0.00
2019-02-25T00:14:27.508Z,0.00
2019-02-25T00:15:58.216Z,0.00
2019-02-25T00:16:58.164Z,0.00
2019-02-25T00:18:28.862Z,0.00
2019-02-25T00:19:28.850Z,0.00
2019-02-25T00:20:58.992Z,0.00
2019-02-25T00:21:59.876Z,0.00
2019-02-25T00:23:29.627Z,0.00
2019-02-25T00:24:29.612Z,0.00
2019-02-25T00:26:00.337Z,0.00
2019-02-25T00:27:00.282Z,0.00
2019-02-25T00:28:30.986Z,0.00
2019-02-25T00:29:31.868Z,0.00
2019-02-25T00:31:01.688Z,0.00
2019-02-25T00:32:01.658Z,0.00
2019-02-25T00:33:32.340Z,0.00
2019-02-25T00:34:32.328Z,0.00
2019-02-25T00:36:03.066Z,0.00
2019-02-25T00:37:03.016Z,0.00
2019-02-25T00:38:34.110Z,0.00
2019-02-25T00:39:33.706Z,0.00
2019-02-25T00:41:04.437Z,0.00
2019-02-25T00:42:04.426Z,0.00
2019-02-25T00:43:35.070Z,0.00
2019-02-25T00:44:35.062Z,0.00
2019-02-25T00:46:06.740Z,0.00
2019-02-25T00:47:06.720Z,0.00
2019-02-25T00:48:38.290Z,0.00
2019-02-25T00:49:37.411Z,0.00
2019-02-25T00:51:09.018Z,0.00
2019-02-25T00:52:08.135Z,0.00
2019-02-25T00:53:38.814Z,0.00
2019-02-25T00:54:38.775Z,0.00
2019-02-25T00:56:09.478Z,0.00
2019-02-25T00:57:09.460Z,0.00
2019-02-25T00:58:40.185Z,0.00
2019-02-25T00:59:40.146Z,0.00
2019-02-25T01:01:11.738Z,0.00
2019-02-25T01:02:10.822Z,0.00
2019-02-25T01:03:42.486Z,0.00
2019-02-25T01:04:42.479Z,0.00
2019-02-25T01:06:13.218Z,0.00
2019-02-25T01:07:13.166Z,0.00
2019-02-25T01:08:43.863Z,0.00
2019-02-25T01:09:43.854Z,0.00
2019-02-25T01:11:14.556Z,0.00
2019-02-25T01:12:14.517Z,0.00
2019-02-25T01:13:45.620Z,0.00
2019-02-25T01:14:45.244Z,0.00
2019-02-25T01:16:15.908Z,0.00
2019-02-25T01:17:15.889Z,0.00
2019-02-25T01:18:46.591Z,0.00
2019-02-25T01:19:46.576Z,0.00
2019-02-25T01:21:17.282Z,0.00
2019-02-25T01:22:17.264Z,0.00
2019-02-25T01:23:48.991Z,0.00
2019-02-25T01:24:47.941Z,0.00
2019-02-25T01:26:18.484Z,0.00
2019-02-25T01:27:18.014Z,0.00
2019-02-25T01:28:48.722Z,0.00
2019-02-25T01:29:48.694Z,0.00
2019-02-25T01:31:19.788Z,0.00
2019-02-25T01:32:19.370Z,0.00
2019-02-25T01:33:50.077Z,0.00
2019-02-25T01:34:50.038Z,0.00
2019-02-25T01:36:20.808Z,0.00
2019-02-25T01:37:20.758Z,0.00
2019-02-25T01:38:51.483Z,0.00
2019-02-25T01:39:51.448Z,0.00
2019-02-25T01:41:22.128Z,0.00
2019-02-25T01:42:22.104Z,0.00
2019-02-25T01:43:52.830Z,0.00
2019-02-25T01:44:52.808Z,0.00
2019-02-25T01:46:23.484Z,0.00
2019-02-25T01:47:23.466Z,0.00
2019-02-25T01:48:55.042Z,0.00
2019-02-25T01:49:54.166Z,0.00
2019-02-25T01:51:24.856Z,0.00
2019-02-25T01:52:24.876Z,0.00
2019-02-25T01:53:55.948Z,0.00
2019-02-25T01:54:55.484Z,0.00
2019-02-25T01:56:26.217Z,0.00
2019-02-25T01:57:26.188Z,0.00
2019-02-25T01:58:56.910Z,0.00
2019-02-25T01:59:56.848Z,0.00
2019-02-25T02:01:27.570Z,0.00
2019-02-25T02:02:27.549Z,0.00
2019-02-25T02:03:58.218Z,0.00
2019-02-25T02:04:58.218Z,0.00
2019-02-25T02:06:28.876Z,0.00
2019-02-25T02:07:28.863Z,0.00
2019-02-25T02:09:12.259Z,0.00
2019-02-25T02:10:12.208Z,0.00
2019-02-25T02:11:43.309Z,0.00
2019-02-25T02:12:42.900Z,0.00
2019-02-25T02:14:13.588Z,0.00
2019-02-25T02:15:13.554Z,0.00
2019-02-25T02:16:45.149Z,0.00
2019-02-25T02:17:44.256Z,0.00
2019-02-25T02:19:14.972Z,0.00
2019-02-25T02:20:14.942Z,0.00
2019-02-25T02:21:46.510Z,0.00
2019-02-25T02:22:45.602Z,0.00
2019-02-25T02:24:16.289Z,0.00
2019-02-25T02:25:16.262Z,0.00
2019-02-25T02:26:46.967Z,0.00
2019-02-25T02:27:46.926Z,0.00
2019-02-25T02:29:18.021Z,0.00
2019-02-25T02:30:17.601Z,0.00
2019-02-25T02:31:49.288Z,0.00
2019-02-25T02:32:49.263Z,0.00
2019-02-25T02:34:19.935Z,0.00
2019-02-25T02:35:19.914Z,0.00
2019-02-25T02:36:50.640Z,0.00
2019-02-25T02:37:50.590Z,0.00
2019-02-25T02:39:21.270Z,0.00
2019-02-25T02:40:21.307Z,0.00
2019-02-25T02:41:51.427Z,0.00
2019-02-25T02:42:51.394Z,0.00
2019-02-25T02:44:22.118Z,0.00
2019-02-25T02:45:22.088Z,0.00
2019-02-25T02:46:52.792Z,0.00
2019-02-25T02:47:52.771Z,0.00
2019-02-25T02:49:23.437Z,0.00
2019-02-25T02:50:23.430Z,0.00
2019-02-25T02:51:54.171Z,0.00
2019-02-25T02:52:54.130Z,0.00
2019-02-25T02:54:24.274Z,0.00
2019-02-25T02:55:24.249Z,0.00
2019-02-25T02:56:54.941Z,0.00
2019-02-25T02:57:55.814Z,0.00
2019-02-25T02:59:25.608Z,0.00
2019-02-25T03:00:25.600Z,0.00
2019-02-25T03:01:56.287Z,0.00
2019-02-25T03:02:56.245Z,0.00
2019-02-25T03:04:26.939Z,0.00
2019-02-25T03:05:26.915Z,0.00
2019-02-25T03:06:57.619Z,0.00
2019-02-25T03:07:57.617Z,0.00
2019-02-25T03:09:29.296Z,0.00
2019-02-25T03:10:29.255Z,0.00
2019-02-25T03:11:59.966Z,0.00
2019-02-25T03:12:59.934Z,0.00
2019-02-25T03:14:30.648Z,0.00
2019-02-25T03:15:30.626Z,0.00
2019-02-25T03:17:01.729Z,0.00
2019-02-25T03:18:01.376Z,0.00
2019-02-25T03:19:32.022Z,0.00
2019-02-25T03:20:31.995Z,0.00
2019-02-25T03:22:02.700Z,0.00
2019-02-25T03:23:02.676Z,0.00
2019-02-25T03:24:33.781Z,0.00
2019-02-25T03:25:33.364Z,0.00
2019-02-25T03:27:04.086Z,0.00
2019-02-25T03:28:04.055Z,0.00
2019-02-25T03:29:34.769Z,0.00
2019-02-25T03:30:34.783Z,0.00
2019-02-25T03:32:05.441Z,0.00
2019-02-25T03:33:05.413Z,0.00
2019-02-25T03:34:36.110Z,0.00
2019-02-25T03:35:36.979Z,0.00
2019-02-25T03:37:06.808Z,0.00
2019-02-25T03:38:06.776Z,0.00
2019-02-25T03:39:37.507Z,0.00
2019-02-25T03:40:37.462Z,0.00
2019-02-25T03:42:08.146Z,0.00
2019-02-25T03:43:08.116Z,0.00
2019-02-25T03:44:38.796Z,0.00
2019-02-25T03:45:39.685Z,0.00
2019-02-25T03:47:09.520Z,0.00
2019-02-25T03:48:10.338Z,0.00
2019-02-25T03:49:40.200Z,0.00
2019-02-25T03:50:40.145Z,0.00
2019-02-25T03:52:10.849Z,0.00
2019-02-25T03:53:10.836Z,0.00
2019-02-25T03:54:41.533Z,0.00
2019-02-25T03:55:41.510Z,0.00
2019-02-25T03:57:12.221Z,0.00
2019-02-25T03:58:12.226Z,0.00
2019-02-25T03:59:42.929Z,0.00
2019-02-25T04:00:42.879Z,0.00
2019-02-25T04:02:13.581Z,0.00
2019-02-25T04:03:13.541Z,0.00
2019-02-25T04:04:44.208Z,0.00
2019-02-25T04:05:44.234Z,0.00
2019-02-25T04:07:14.906Z,0.00
2019-02-25T04:08:14.872Z,0.00
2019-02-25T04:09:45.050Z,0.00
2019-02-25T04:10:45.035Z,0.00
2019-02-25T04:12:15.720Z,0.00
2019-02-25T04:13:15.709Z,0.00
2019-02-25T04:14:46.385Z,0.00
2019-02-25T04:15:47.263Z,0.00
2019-02-25T04:17:17.926Z,0.00
2019-02-25T04:18:17.937Z,0.00
2019-02-25T04:19:47.744Z,0.00
2019-02-25T04:20:47.744Z,0.00
2019-02-25T04:22:18.832Z,0.00
2019-02-25T04:23:18.442Z,0.00
2019-02-25T04:24:49.518Z,0.00
2019-02-25T04:25:49.095Z,0.00
2019-02-25T04:27:20.112Z,0.00
2019-02-25T04:28:19.223Z,0.00
2019-02-25T04:29:49.355Z,0.00
2019-02-25T04:30:49.336Z,0.00
2019-02-25T04:32:21.686Z,0.00
2019-02-25T04:33:20.041Z,0.00
2019-02-25T04:34:51.609Z,0.00
2019-02-25T04:35:50.719Z,0.00
2019-02-25T04:37:21.418Z,0.00
2019-02-25T04:38:21.396Z,0.00
2019-02-25T04:39:52.067Z,0.00
2019-02-25T04:40:52.059Z,0.00
2019-02-25T04:42:22.774Z,0.00
2019-02-25T04:43:22.732Z,0.00
2019-02-25T04:44:53.409Z,0.00
2019-02-25T04:46:43.525Z,0.00
2019-02-25T04:47:43.501Z,0.00
2019-02-25T04:49:14.189Z,0.00
2019-02-25T04:50:14.160Z,0.00
2019-02-25T04:51:44.881Z,0.00
2019-02-25T04:52:44.869Z,0.00
2019-02-25T04:54:15.582Z,0.00
2019-02-25T04:55:15.539Z,0.00
2019-02-25T04:56:46.245Z,0.00
2019-02-25T04:57:46.205Z,0.00
2019-02-25T04:59:16.906Z,0.00
2019-02-25T05:00:17.772Z,0.00
2019-02-25T05:01:47.606Z,0.00
2019-02-25T05:02:47.595Z,0.00
2019-02-25T05:04:18.284Z,0.00
2019-02-25T05:05:18.261Z,0.00
2019-02-25T05:06:48.402Z,0.00
2019-02-25T05:07:48.382Z,0.00
2019-02-25T05:09:19.063Z,0.00
2019-02-25T05:10:19.052Z,0.00
2019-02-25T05:11:49.746Z,0.00
2019-02-25T05:12:49.729Z,0.00
2019-02-25T05:14:20.396Z,0.00
2019-02-25T05:15:20.391Z,0.00
2019-02-25T05:16:51.095Z,0.00
2019-02-25T05:17:51.940Z,0.00
2019-02-25T05:19:21.730Z,0.00
2019-02-25T05:20:21.727Z,0.00
2019-02-25T05:21:52.486Z,4.00
2019-02-25T05:22:52.444Z,4.00
2019-02-25T05:24:24.008Z,4.00
2019-02-25T05:25:23.153Z,4.00
2019-02-25T05:26:53.854Z,4.00
2019-02-25T05:27:53.833Z,0.00
2019-02-25T05:29:24.508Z,0.00
2019-02-25T05:30:24.473Z,4.00
2019-02-25T05:31:55.183Z,4.00
2019-02-25T05:32:55.158Z,4.00
2019-02-25T05:34:26.254Z,4.00
2019-02-25T05:35:26.750Z,4.00
2019-02-25T05:36:56.535Z,8.00
2019-02-25T05:37:56.550Z,4.00
2019-02-25T05:39:27.210Z,8.00
2019-02-25T05:40:27.196Z,12.00
2019-02-25T05:41:57.857Z,12.00
2019-02-25T05:42:57.835Z,12.00
2019-02-25T05:44:28.552Z,16.00
2019-02-25T05:45:29.426Z,20.00
2019-02-25T05:46:59.634Z,24.00
2019-02-25T05:47:59.178Z,24.00
2019-02-25T05:49:29.866Z,32.00
2019-02-25T05:50:29.836Z,36.00
2019-02-25T05:52:01.410Z,48.00
2019-02-25T05:53:01.412Z,56.00
2019-02-25T05:54:31.286Z,64.00
2019-02-25T05:55:31.203Z,76.00
2019-02-25T05:57:01.909Z,84.00
2019-02-25T05:58:01.886Z,96.00
2019-02-25T05:59:32.557Z,112.00
2019-02-25T06:00:32.527Z,120.00
2019-02-25T06:02:05.425Z,140.00
2019-02-25T06:03:03.205Z,148.00
2019-02-25T06:04:33.882Z,176.00
2019-02-25T06:05:33.864Z,196.00
2019-02-25T06:07:04.561Z,232.00
2019-02-25T06:08:04.556Z,260.00
2019-02-25T06:09:35.848Z,304.00
2019-02-25T06:10:35.536Z,336.00
2019-02-25T06:12:06.527Z,388.00
2019-02-25T06:13:06.250Z,420.00
2019-02-25T06:14:36.923Z,480.00
2019-02-25T06:15:36.885Z,516.00
2019-02-25T06:17:07.562Z,572.00
2019-02-25T06:18:07.540Z,612.00
2019-02-25T06:19:39.144Z,672.00
2019-02-25T06:20:38.225Z,716.00
2019-02-25T06:22:08.928Z,776.00
2019-02-25T06:23:09.826Z,824.00
2019-02-25T06:25:48.058Z,940.00
2019-02-25T06:26:48.023Z,992.00
2019-02-25T06:28:18.763Z,1068.00
2019-02-25T06:30:08.870Z,1164.00
2019-02-25T06:31:09.768Z,1216.00
2019-02-25T06:32:40.528Z,1308.00
2019-02-25T06:33:40.506Z,1360.00
2019-02-25T06:35:11.241Z,1432.00
2019-02-25T06:36:11.223Z,1492.00
2019-02-25T06:37:41.916Z,1588.00
2019-02-25T06:38:41.908Z,1656.00
2019-02-25T06:40:15.241Z,1736.00
2019-02-25T06:41:12.568Z,1796.00
2019-02-25T06:42:43.250Z,1896.00
2019-02-25T06:43:43.222Z,1960.00
2019-02-25T06:45:13.914Z,2060.00
2019-02-25T06:46:13.895Z,2136.00
2019-02-25T06:47:44.621Z,2252.00
2019-02-25T06:48:44.595Z,2324.00
2019-02-25T06:50:15.317Z,2448.00
2019-02-25T06:51:15.265Z,2524.00
2019-02-25T06:52:45.950Z,2604.00
2019-02-25T06:53:45.947Z,2660.00
2019-02-25T06:55:16.625Z,2740.00
2019-02-25T06:56:16.584Z,2800.00
2019-02-25T06:57:47.295Z,2916.00
2019-02-25T06:58:47.264Z,3004.00
2019-02-25T07:00:17.954Z,3128.00
2019-02-25T07:01:17.939Z,3216.00
2019-02-25T07:02:48.598Z,3388.00
2019-02-25T07:03:48.582Z,3504.00
2019-02-25T07:05:19.268Z,3684.00
2019-02-25T07:06:19.248Z,3848.00
2019-02-25T07:07:49.959Z,4212.00
2019-02-25T07:08:49.972Z,4372.00
2019-02-25T07:10:20.628Z,4616.00
2019-02-25T07:11:20.624Z,4680.00
2019-02-25T07:12:51.326Z,4820.00
2019-02-25T07:13:51.306Z,4832.00
2019-02-25T07:15:21.978Z,4604.00
2019-02-25T07:16:21.979Z,4820.00
2019-02-25T07:17:22.721Z,4908.00
2019-02-25T07:18:21.928Z,4876.00
2019-02-25T07:19:21.916Z,4876.00
2019-02-25T07:20:21.914Z,4948.00
2019-02-25T07:21:21.912Z,5072.00
2019-02-25T07:22:21.896Z,5152.00
2019-02-25T07:23:21.887Z,5236.00
2019-02-25T07:24:21.868Z,5380.00
2019-02-25T07:25:21.856Z,5484.00
2019-02-25T07:26:21.848Z,5532.00
2019-02-25T07:27:21.830Z,5608.00
2019-02-25T07:28:21.836Z,5732.00
2019-02-25T07:29:21.833Z,5812.00
2019-02-25T07:30:21.804Z,5992.00
2019-02-25T07:31:21.789Z,6128.00
2019-02-25T07:32:21.784Z,6236.00
2019-02-25T07:33:21.772Z,6412.00
2019-02-25T07:34:21.755Z,6584.00
2019-02-25T07:35:21.751Z,6728.00
2019-02-25T07:36:21.742Z,6868.00
2019-02-25T07:37:21.726Z,7028.00
2019-02-25T07:38:21.731Z,7348.00
2019-02-25T07:39:21.736Z,7580.00
2019-02-25T07:40:21.700Z,7956.00
2019-02-25T07:41:21.680Z,8672.00
2019-02-25T07:42:21.671Z,9500.00
2019-02-25T07:43:21.664Z,13784.00
2019-02-25T07:44:21.660Z,20736.00
2019-02-25T07:45:21.644Z,36096.00
2019-02-25T07:46:21.629Z,51136.00
2019-02-25T07:47:21.620Z,61376.00
2019-02-25T07:48:21.608Z,66304.00
2019-02-25T07:49:21.610Z,66464.00
2019-02-25T07:50:21.598Z,67104.00
2019-02-25T07:51:21.578Z,67328.00
2019-02-25T07:52:21.570Z,65792.00
2019-02-25T07:53:21.546Z,66720.00
2019-02-25T07:54:21.540Z,68224.00
2019-02-25T07:55:21.542Z,68320.00
2019-02-25T07:56:21.528Z,70048.00
2019-02-25T07:57:21.516Z,69600.00
2019-02-25T07:58:21.508Z,69984.00
2019-02-25T07:59:21.482Z,60288.00
2019-02-25T08:00:21.474Z,68128.00
2019-02-25T08:01:21.466Z,68768.00
2019-02-25T08:02:21.469Z,67584.00
2019-02-25T08:03:21.442Z,67872.00
2019-02-25T08:04:21.428Z,66976.00
2019-02-25T08:05:21.429Z,67264.00
2019-02-25T08:06:21.414Z,68064.00
2019-02-25T08:07:21.404Z,66752.00
2019-02-25T08:08:21.394Z,62656.00
2019-02-25T08:09:21.378Z,64320.00
2019-02-25T08:10:21.365Z,66784.00
2019-02-25T08:11:21.901Z,62048.00
2019-02-25T08:12:21.346Z,54432.00
2019-02-25T08:13:21.344Z,60928.00
2019-02-25T08:14:21.318Z,66656.00
2019-02-25T08:15:21.331Z,69600.00
2019-02-25T08:16:21.301Z,70368.00
2019-02-25T08:17:21.294Z,73728.00
2019-02-25T08:18:21.282Z,72256.00
2019-02-25T08:19:21.282Z,66720.00
2019-02-25T08:20:21.258Z,76672.00
2019-02-25T08:21:21.261Z,77056.00
2019-02-25T08:22:22.889Z,76064.00
2019-02-25T08:23:21.235Z,74592.00
2019-02-25T08:24:30.172Z,76160.00
2019-02-25T08:25:22.208Z,76320.00
2019-02-25T08:26:21.192Z,73696.00
2019-02-25T08:27:21.189Z,69504.00
2019-02-25T08:28:21.195Z,78752.00
2019-02-25T08:29:21.168Z,79456.00
2019-02-25T08:30:21.165Z,75232.00
2019-02-25T08:31:21.155Z,79360.00
2019-02-25T08:32:21.134Z,79936.00
2019-02-25T08:33:21.125Z,67552.00
2019-02-25T08:34:21.111Z,69344.00
2019-02-25T08:35:21.104Z,61952.00
2019-02-25T08:36:21.090Z,60864.00
2019-02-25T08:37:21.088Z,62176.00
2019-02-25T08:38:21.102Z,67264.00
2019-02-25T08:39:21.064Z,66368.00
2019-02-25T08:40:21.057Z,64224.00
2019-02-25T08:41:21.042Z,76992.00
2019-02-25T08:42:21.033Z,77760.00
2019-02-25T08:43:21.024Z,73088.00
2019-02-25T08:44:21.015Z,75008.00
2019-02-25T08:45:22.805Z,75232.00
2019-02-25T08:46:20.996Z,75360.00
2019-02-25T08:47:20.982Z,79648.00
2019-02-25T08:48:20.969Z,83552.00
2019-02-25T08:49:20.971Z,83808.00
2019-02-25T08:50:20.953Z,87456.00
2019-02-25T08:51:20.954Z,84864.00
2019-02-25T08:52:20.942Z,83936.00
2019-02-25T08:53:20.922Z,74560.00
2019-02-25T08:54:20.927Z,81728.00
2019-02-25T08:55:20.916Z,85376.00
2019-02-25T08:56:20.884Z,84256.00
2019-02-25T08:57:20.878Z,82432.00
2019-02-25T08:58:20.874Z,84928.00
2019-02-25T08:59:20.858Z,82912.00
2019-02-25T09:00:20.853Z,81056.00
2019-02-25T09:01:20.864Z,70880.00
2019-02-25T09:02:20.824Z,82304.00
2019-02-25T09:03:20.813Z,81920.00
2019-02-25T09:04:20.811Z,85024.00
2019-02-25T09:05:20.799Z,88640.00
2019-02-25T09:06:20.795Z,84256.00
2019-02-25T09:07:20.787Z,87360.00
2019-02-25T09:08:20.776Z,82336.00
2019-02-25T09:09:20.774Z,83744.00
2019-02-25T09:10:20.755Z,84704.00
2019-02-25T09:11:20.744Z,92544.00
2019-02-25T09:12:20.735Z,92544.00
2019-02-25T09:13:23.797Z,97152.00
2019-02-25T09:14:20.715Z,94272.00
2019-02-25T09:15:20.704Z,87392.00
2019-02-25T09:16:20.701Z,95872.00
2019-02-25T09:17:20.684Z,97120.00
2019-02-25T09:18:20.733Z,96672.00
2019-02-25T09:19:20.712Z,88928.00
2019-02-25T09:20:20.648Z,83776.00
2019-02-25T09:21:20.649Z,84544.00
2019-02-25T09:22:20.655Z,77024.00
2019-02-25T09:23:20.624Z,66624.00
2019-02-25T09:24:20.634Z,67168.00
2019-02-25T09:25:20.616Z,70464.00
2019-02-25T09:26:20.636Z,77152.00
2019-02-25T09:27:20.580Z,81920.00
2019-02-25T09:28:20.577Z,82016.00
2019-02-25T09:29:20.565Z,85184.00
2019-02-25T09:30:20.559Z,80992.00
2019-02-25T09:31:20.545Z,70880.00
2019-02-25T09:32:20.536Z,60512.00
2019-02-25T09:33:20.519Z,62912.00
2019-02-25T09:34:20.517Z,88128.00
2019-02-25T09:35:20.504Z,90144.00
2019-02-25T09:36:20.502Z,89920.00
2019-02-25T09:37:20.484Z,77184.00
2019-02-25T09:38:20.471Z,62976.00
2019-02-25T09:39:20.472Z,67456.00
2019-02-25T09:40:20.456Z,82048.00
2019-02-25T09:41:29.460Z,87936.00
2019-02-25T09:42:21.444Z,91488.00
2019-02-25T09:43:20.431Z,92448.00
2019-02-25T09:44:20.416Z,88832.00
2019-02-25T09:45:20.403Z,86272.00
2019-02-25T09:46:20.408Z,75328.00
2019-02-25T09:47:20.398Z,71200.00
2019-02-25T09:48:20.383Z,63360.00
2019-02-25T09:49:20.366Z,63616.00
2019-02-25T09:50:20.360Z,51968.00
2019-02-25T09:51:20.344Z,53024.00
2019-02-25T09:52:20.342Z,46784.00
2019-02-25T09:53:20.331Z,57568.00
2019-02-25T09:54:20.339Z,62144.00
2019-02-25T09:55:20.324Z,69888.00
2019-02-25T09:56:20.294Z,66304.00
2019-02-25T09:57:20.313Z,55872.00
2019-02-25T09:58:20.280Z,40672.00
2019-02-25T09:59:20.274Z,21728.00
2019-02-25T10:00:20.282Z,37152.00
2019-02-25T10:01:20.244Z,43936.00
2019-02-25T10:02:20.236Z,41600.00
2019-02-25T10:03:20.220Z,40608.00
2019-02-25T10:04:20.212Z,29344.00
2019-02-25T10:05:20.220Z,34272.00
2019-02-25T10:06:20.186Z,46912.00
2019-02-25T10:07:20.186Z,50016.00
2019-02-25T10:08:20.172Z,40000.00
2019-02-25T10:09:29.480Z,56384.00
2019-02-25T10:10:21.156Z,50752.00
2019-02-25T10:11:20.146Z,67264.00
2019-02-25T10:12:20.135Z,64192.00
2019-02-25T10:13:20.122Z,59264.00
2019-02-25T10:14:20.112Z,69376.00
2019-02-25T10:15:20.104Z,64704.00
2019-02-25T10:16:20.092Z,64960.00
2019-02-25T10:17:23.776Z,66752.00
2019-02-25T10:18:20.068Z,69408.00
2019-02-25T10:19:20.052Z,73664.00
2019-02-25T10:20:20.074Z,75904.00
2019-02-25T10:21:20.046Z,76640.00
2019-02-25T10:22:20.039Z,78176.00
2019-02-25T10:23:20.030Z,78304.00
2019-02-25T10:24:20.012Z,72192.00
2019-02-25T10:25:20.000Z,83712.00
2019-02-25T10:26:19.992Z,84320.00
2019-02-25T10:27:19.985Z,80544.00
2019-02-25T10:28:19.974Z,73568.00
2019-02-25T10:29:19.969Z,81664.00
2019-02-25T10:30:19.945Z,81568.00
2019-02-25T10:31:19.934Z,56768.00
2019-02-25T10:32:19.930Z,84736.00
2019-02-25T10:33:19.970Z,70016.00
2019-02-25T10:34:19.914Z,78720.00
2019-02-25T10:35:19.922Z,79904.00
2019-02-25T10:36:19.894Z,78400.00
2019-02-25T10:37:19.878Z,57664.00
2019-02-25T10:38:21.532Z,48032.00
2019-02-25T10:39:19.902Z,65664.00
2019-02-25T10:40:24.004Z,51040.00
2019-02-25T10:41:21.686Z,24256.00
2019-02-25T10:42:19.822Z,14344.00
2019-02-25T10:43:19.853Z,13700.00
2019-02-25T10:44:19.804Z,13320.00
2019-02-25T10:45:19.836Z,13060.00
2019-02-25T10:46:19.786Z,12784.00
2019-02-25T10:47:21.421Z,12804.00
2019-02-25T10:48:21.499Z,12580.00
2019-02-25T10:49:19.750Z,12740.00
2019-02-25T10:50:19.762Z,12680.00
2019-02-25T10:51:19.734Z,12640.00
2019-02-25T10:52:19.724Z,12376.00
2019-02-25T10:53:21.604Z,12172.00
2019-02-25T10:54:21.257Z,11996.00
2019-02-25T10:55:19.691Z,13312.00
2019-02-25T10:56:21.514Z,14156.00
2019-02-25T10:57:21.334Z,12540.00
2019-02-25T10:58:19.666Z,12756.00
2019-02-25T10:59:19.650Z,11540.00
2019-02-25T11:00:19.631Z,12480.00
2019-02-25T11:01:22.046Z,17024.00
2019-02-25T11:02:19.614Z,21184.00
2019-02-25T11:03:21.630Z,14920.00
2019-02-25T11:04:21.631Z,13072.00
2019-02-25T11:05:21.161Z,13268.00
2019-02-25T11:06:19.599Z,13704.00
2019-02-25T11:07:19.567Z,17440.00
2019-02-25T11:08:19.551Z,13716.00
2019-02-25T11:09:19.542Z,12212.00
2019-02-25T11:10:20.391Z,12420.00
2019-02-25T11:11:21.004Z,12060.00
2019-02-25T11:12:21.457Z,12212.00
2019-02-25T11:13:19.503Z,13772.00
2019-02-25T11:14:19.490Z,14072.00
2019-02-25T11:15:19.486Z,12236.00
2019-02-25T11:16:20.446Z,11120.00
2019-02-25T11:17:20.350Z,11128.00
2019-02-25T11:18:20.267Z,11028.00
2019-02-25T11:19:19.451Z,10836.00
2019-02-25T11:20:19.449Z,10584.00
2019-02-25T11:21:19.409Z,10268.00
2019-02-25T11:22:19.415Z,10084.00
2019-02-25T11:23:19.968Z,9964.00
2019-02-25T11:24:21.135Z,9908.00
2019-02-25T11:25:21.047Z,9712.00
2019-02-25T11:26:19.360Z,9372.00
2019-02-25T11:27:19.343Z,9276.00
2019-02-25T11:28:25.484Z,9148.00
2019-02-25T11:29:20.320Z,9024.00
2019-02-25T11:30:21.130Z,8832.00
2019-02-25T11:31:22.850Z,8652.00
2019-02-25T11:32:21.546Z,8484.00
2019-02-25T11:33:19.276Z,8380.00
2019-02-25T11:34:19.273Z,8304.00
2019-02-25T11:35:19.260Z,8268.00
2019-02-25T11:36:21.728Z,8216.00
2019-02-25T11:37:21.712Z,8092.00
2019-02-25T11:38:19.225Z,7952.00
2019-02-25T11:39:19.220Z,7832.00
2019-02-25T11:40:19.212Z,7832.00
2019-02-25T11:41:19.213Z,7864.00
2019-02-25T11:42:20.642Z,7908.00
2019-02-25T11:43:21.500Z,7936.00
2019-02-25T11:44:21.101Z,7976.00
2019-02-25T11:45:19.166Z,8092.00
2019-02-25T11:46:19.142Z,11596.00
2019-02-25T11:47:19.123Z,15392.00
2019-02-25T11:48:19.123Z,13232.00
2019-02-25T11:49:19.118Z,8864.00
2019-02-25T11:50:19.099Z,9744.00
2019-02-25T11:51:19.094Z,7900.00
2019-02-25T11:52:19.086Z,7712.00
2019-02-25T11:53:19.060Z,7352.00
2019-02-25T11:54:19.058Z,7172.00
2019-02-25T11:55:19.040Z,7072.00
2019-02-25T11:56:19.035Z,7020.00
2019-02-25T11:57:19.030Z,7048.00
2019-02-25T11:58:19.015Z,7012.00
2019-02-25T11:59:19.006Z,6892.00
2019-02-25T12:00:19.019Z,6752.00
2019-02-25T12:01:18.975Z,6692.00
2019-02-25T12:02:25.277Z,6640.00
2019-02-25T12:03:19.956Z,6676.00
2019-02-25T12:04:18.950Z,6628.00
2019-02-25T12:05:18.937Z,6640.00
2019-02-25T12:06:18.918Z,6564.00
2019-02-25T12:07:18.908Z,6420.00
2019-02-25T12:08:18.900Z,6344.00
2019-02-25T12:09:18.892Z,6344.00
2019-02-25T12:10:18.880Z,6380.00
2019-02-25T12:11:18.872Z,6404.00
2019-02-25T12:12:18.856Z,6380.00
2019-02-25T12:13:18.862Z,6420.00
2019-02-25T12:14:18.836Z,6432.00
2019-02-25T12:15:18.829Z,6416.00
2019-02-25T12:16:18.816Z,6332.00
2019-02-25T12:17:18.827Z,6264.00
2019-02-25T12:18:18.787Z,6232.00
2019-02-25T12:19:18.775Z,6180.00
2019-02-25T12:20:18.772Z,6112.00
2019-02-25T12:21:18.762Z,6028.00
2019-02-25T12:22:18.764Z,5984.00
2019-02-25T12:23:18.738Z,5960.00
2019-02-25T12:24:18.730Z,6016.00
2019-02-25T12:25:18.723Z,6068.00
2019-02-25T12:26:18.742Z,6060.00
2019-02-25T12:27:18.718Z,6024.00
2019-02-25T12:28:18.704Z,6004.00
2019-02-25T12:29:18.670Z,5912.00
2019-02-25T12:30:18.661Z,5872.00
2019-02-25T12:31:18.648Z,5836.00
2019-02-25T12:32:18.637Z,5780.00
2019-02-25T12:33:18.668Z,5724.00
2019-02-25T12:34:18.674Z,5712.00
2019-02-25T12:35:18.611Z,5588.00
2019-02-25T12:36:18.602Z,5484.00
2019-02-25T12:37:18.586Z,5404.00
2019-02-25T12:38:18.574Z,5272.00
2019-02-25T12:39:18.572Z,5256.00
2019-02-25T12:40:18.566Z,5196.00
2019-02-25T12:41:18.544Z,5192.00
2019-02-25T12:42:18.530Z,5260.00
2019-02-25T12:43:18.526Z,5304.00
2019-02-25T12:44:18.508Z,5348.00
2019-02-25T12:45:18.520Z,5368.00
2019-02-25T12:46:18.492Z,5344.00
2019-02-25T12:47:18.478Z,5368.00
2019-02-25T12:48:18.467Z,5312.00
2019-02-25T12:49:18.450Z,5272.00
2019-02-25T12:50:18.483Z,5144.00
2019-02-25T12:51:18.447Z,5076.00
2019-02-25T12:52:18.436Z,5096.00
2019-02-25T12:53:18.417Z,5176.00
2019-02-25T12:54:18.403Z,5240.00
2019-02-25T12:55:18.392Z,5268.00
2019-02-25T12:56:18.378Z,5296.00
2019-02-25T12:57:18.366Z,5240.00
2019-02-25T12:58:18.363Z,5236.00
2019-02-25T12:59:18.346Z,5228.00
2019-02-25T13:00:18.346Z,5200.00
2019-02-25T13:01:18.332Z,5168.00
2019-02-25T13:02:18.315Z,5188.00
2019-02-25T13:03:18.316Z,5228.00
2019-02-25T13:04:48.994Z,5172.00
2019-02-25T13:05:48.973Z,4928.00
2019-02-25T13:07:19.706Z,5156.00
2019-02-25T13:08:19.669Z,5048.00
2019-02-25T13:09:50.383Z,5100.00
2019-02-25T13:10:50.336Z,5056.00
2019-02-25T13:11:50.318Z,5056.00
2019-02-25T13:12:51.556Z,4988.00
2019-02-25T13:13:50.295Z,4932.00
2019-02-25T13:14:50.278Z,4960.00
2019-02-25T13:15:50.284Z,4856.00
2019-02-25T13:16:50.274Z,4804.00
2019-02-25T13:17:50.257Z,4756.00
2019-02-25T13:18:50.238Z,4688.00
2019-02-25T13:19:50.265Z,4580.00
2019-02-25T13:20:50.216Z,4496.00
2019-02-25T13:21:50.214Z,4340.00
2019-02-25T13:22:50.231Z,4452.00
2019-02-25T13:23:50.184Z,4352.00
2019-02-25T13:24:50.168Z,4340.00
2019-02-25T13:25:50.267Z,3848.00
2019-02-25T13:26:50.158Z,4316.00
2019-02-25T13:27:51.452Z,4316.00
2019-02-25T13:28:50.126Z,4264.00
2019-02-25T13:29:50.113Z,4260.00
2019-02-25T13:30:50.109Z,4204.00
2019-02-25T13:31:50.112Z,4132.00
2019-02-25T13:32:50.096Z,4020.00
2019-02-25T13:33:50.106Z,4024.00
2019-02-25T13:34:50.060Z,3944.00
2019-02-25T13:35:50.078Z,3892.00
2019-02-25T13:36:50.050Z,3812.00
2019-02-25T13:37:50.023Z,3736.00
2019-02-25T13:38:50.024Z,3760.00
2019-02-25T13:39:50.012Z,3732.00
2019-02-25T13:40:50.004Z,3704.00
2019-02-25T13:41:49.978Z,3620.00
2019-02-25T13:42:50.053Z,3556.00
2019-02-25T13:43:49.982Z,3488.00
2019-02-25T13:44:49.972Z,3412.00
2019-02-25T13:45:49.950Z,3364.00
2019-02-25T13:46:49.927Z,3312.00
2019-02-25T13:47:49.976Z,3268.00
2019-02-25T13:48:49.906Z,3228.00
2019-02-25T13:49:49.895Z,3172.00
2019-02-25T13:50:49.900Z,3104.00
2019-02-25T13:51:49.877Z,3016.00
2019-02-25T13:52:49.870Z,2908.00
2019-02-25T13:53:49.853Z,2972.00
2019-02-25T13:54:49.850Z,2936.00
2019-02-25T13:55:49.864Z,2896.00
2019-02-25T13:56:49.826Z,2832.00
2019-02-25T13:57:49.810Z,2772.00